Terminal Aerodrome Forecast
Issued by NWS

Home | Current Version | Previous Version | Text Only | Print | Product List | Glossary On
Versions: 1 2 3 4 5 6 7 8 9 10 11 12 13 14 15 16 17 18 19 20 21 22 23 24 25 26 27 28 29 30 31 32 33 34 35
000
FTUS41 KBOX 270545
TAFFMH
TAF
KFMH 270545Z 2706/2806 34022G35KT 2SM -RAPL BR OVC008
     FM270900 33015G22KT P6SM BKN012
     FM271100 31010KT P6SM BKN050
     FM271500 31010KT P6SM BKN025
     FM271900 31006KT P6SM BKN025
     FM280300 31004KT P6SM OVC015=

USA.gov is the U.S. government's official web portal to all federal, state and local government web resources and services.